Time;durP1;ratioP1;P1;durP2;ratioP2;P2;SDS_P1;SDS_P2;PMS_P1;PMS_P2;Temp;Humidity;BMP_temperature;BMP_pressure;BME280_temperature;BME280_humidity;BME280_pressure;Samples;Min_cycle;Max_cycle;Signal;HPM_P1;HPM_P2
2022/12/08 00:03:40;;;;;;;25.40;11.40;;;23.30;51.80;;;;;;215562;1273;24030;-62
2022/12/08 00:14:07;;;;;;;22.70;11.00;;;23.10;51.90;;;;;;215613;1274;24090;-61
2022/12/08 00:19:13;;;;;;;24.70;11.80;;;22.90;52.00;;;;;;215671;1283;22968;-62
2022/12/08 00:24:19;;;;;;;26.20;12.10;;;22.80;52.40;;;;;;215237;1272;22673;-62
2022/12/08 00:29:23;;;;;;;28.10;11.90;;;22.70;52.60;;;;;;215636;1283;22457;-61
2022/12/08 00:34:32;;;;;;;24.10;11.40;;;22.60;53.00;;;;;;215489;1297;25544;-62
2022/12/08 00:39:39;;;;;;;23.30;10.60;;;22.50;53.10;;;;;;215405;1274;24246;-62
2022/12/08 00:44:47;;;;;;;20.10;10.50;;;22.40;53.20;;;;;;215667;1274;25297;-62
2022/12/08 00:49:55;;;;;;;26.00;10.60;;;22.30;53.50;;;;;;215576;1274;25351;-62
2022/12/08 00:54:59;;;;;;;23.10;10.10;;;22.30;53.50;;;;;;215232;1274;22624;-61
2022/12/08 01:00:05;;;;;;;20.40;9.60;;;22.20;53.60;;;;;;216751;1277;22461;-61
2022/12/08 01:05:09;;;;;;;22.10;9.50;;;22.10;53.80;;;;;;215598;1267;23848;-62
2022/12/08 01:10:14;;;;;;;22.00;9.80;;;22.10;53.50;;;;;;215504;1289;22957;-61
2022/12/08 01:15:22;;;;;;;19.10;9.40;;;22.00;53.60;;;;;;221995;1279;24323;-61
2022/12/08 01:20:29;;;;;;;18.60;8.90;;;21.90;53.50;;;;;;217036;1274;25234;-61
2022/12/08 01:25:33;;;;;;;19.50;9.30;;;21.90;53.60;;;;;;218994;1274;23056;-62
2022/12/08 01:30:38;;;;;;;21.20;9.30;;;21.90;54.00;;;;;;215591;1274;23792;-61
2022/12/08 01:35:44;;;;;;;18.10;9.40;;;21.90;53.90;;;;;;215470;1273;26143;-61
2022/12/08 01:40:48;;;;;;;18.30;8.80;;;21.80;53.80;;;;;;215535;1276;22477;-62
2022/12/08 01:45:54;;;;;;;15.70;8.60;;;21.70;53.90;;;;;;215562;1292;25216;-61
2022/12/08 01:51:01;;;;;;;14.60;7.60;;;21.70;54.10;;;;;;215568;1274;23999;-61
2022/12/08 01:56:14;;;;;;;19.90;8.50;;;21.60;54.00;;;;;;215524;1283;22527;-62
2022/12/08 02:01:20;;;;;;;15.50;6.90;;;21.60;54.60;;;;;;215601;1276;25536;-62
2022/12/08 02:06:29;;;;;;;16.00;7.40;;;21.50;54.10;;;;;;215598;1283;24993;-61
2022/12/08 02:11:33;;;;;;;15.10;7.70;;;21.50;54.30;;;;;;215139;1298;25313;-62
2022/12/08 02:17:05;;;;;;;14.10;7.00;;;21.40;54.50;;;;;;218157;1275;25292;-61
2022/12/08 02:22:30;;;;;;;12.70;6.60;;;21.40;54.50;;;;;;214805;1276;23912;-61
2022/12/08 02:27:56;;;;;;;16.20;7.70;;;21.40;54.60;;;;;;215270;1279;22471;-61
2022/12/08 02:33:18;;;;;;;13.90;6.80;;;21.30;54.60;;;;;;215694;1272;24182;-61
2022/12/08 02:38:39;;;;;;;14.70;6.90;;;21.30;54.70;;;;;;215470;1281;22462;-61
2022/12/08 02:43:51;;;;;;;11.80;6.60;;;21.30;55.50;;;;;;215497;1275;24224;-61
2022/12/08 02:48:56;;;;;;;11.90;6.10;;;21.70;54.20;;;;;;215525;1269;23834;-60
2022/12/08 02:54:03;;;;;;;10.80;6.00;;;21.90;53.50;;;;;;215378;1284;25455;-61
2022/12/08 02:59:10;;;;;;;11.80;6.40;;;22.10;53.10;;;;;;215516;1269;22600;-61
2022/12/08 03:04:44;;;;;;;12.50;5.80;;;22.20;52.90;;;;;;215491;1276;24218;-62
2022/12/08 03:10:40;;;;;;;10.10;5.60;;;22.40;52.80;;;;;;215362;1283;25853;-61
2022/12/08 03:15:50;;;;;;;11.70;6.20;;;22.50;52.50;;;;;;215494;1272;22478;-62
2022/12/08 03:20:54;;;;;;;11.70;6.20;;;22.60;52.30;;;;;;215431;1276;23085;-62
2022/12/08 03:26:07;;;;;;;10.60;5.10;;;22.60;52.20;;;;;;215472;1277;24230;-62
2022/12/08 03:31:16;;;;;;;10.00;5.20;;;22.60;52.10;;;;;;215617;1295;22460;-62
2022/12/08 03:36:22;;;;;;;9.40;5.10;;;22.70;52.00;;;;;;215490;1277;23873;-63
2022/12/08 03:41:26;;;;;;;7.70;4.60;;;22.80;51.80;;;;;;215431;1283;23872;-62
2022/12/08 03:46:30;;;;;;;10.10;5.20;;;22.80;51.80;;;;;;215590;1277;23876;-61
2022/12/08 03:51:37;;;;;;;8.80;5.30;;;22.90;51.80;;;;;;215203;1276;24240;-61
2022/12/08 03:56:49;;;;;;;11.50;5.70;;;22.90;51.70;;;;;;215311;1297;23879;-62
2022/12/08 04:01:53;;;;;;;11.00;5.40;;;23.00;51.70;;;;;;216042;1297;25291;-60
2022/12/08 04:06:57;;;;;;;9.80;5.40;;;22.90;51.60;;;;;;215171;1275;23032;-61
2022/12/08 04:12:01;;;;;;;9.50;5.20;;;23.00;51.90;;;;;;215405;1283;26183;-62
2022/12/08 04:17:08;;;;;;;9.30;4.40;;;23.00;51.50;;;;;;215564;1276;23298;-62
2022/12/08 04:22:12;;;;;;;7.90;4.90;;;23.10;51.50;;;;;;215473;1294;23870;-62
2022/12/08 04:27:16;;;;;;;9.20;5.20;;;23.10;51.50;;;;;;215453;1277;25286;-61
2022/12/08 04:32:23;;;;;;;10.10;5.20;;;23.10;51.50;;;;;;215461;1276;25549;-62
2022/12/08 04:37:28;;;;;;;6.50;3.90;;;23.10;51.50;;;;;;215226;1282;22702;-61
2022/12/08 04:42:35;;;;;;;7.50;4.20;;;23.30;51.70;;;;;;215550;1291;25402;-61
2022/12/08 04:47:39;;;;;;;8.30;3.90;;;23.30;51.20;;;;;;215426;1283;22442;-61
2022/12/08 04:52:42;;;;;;;8.60;4.40;;;23.30;51.20;;;;;;215443;1292;24229;-62
2022/12/08 04:57:46;;;;;;;6.90;4.30;;;23.20;51.40;;;;;;215566;1291;25364;-61
2022/12/08 05:02:50;;;;;;;7.30;4.30;;;23.10;51.60;;;;;;215542;1276;23867;-61
2022/12/08 05:08:04;;;;;;;8.50;4.10;;;23.00;52.00;;;;;;215207;1298;25294;-62
2022/12/08 05:13:08;;;;;;;7.20;4.30;;;22.90;52.00;;;;;;215490;1275;24428;-61
2022/12/08 05:18:15;;;;;;;7.40;3.90;;;22.80;52.30;;;;;;215241;1277;24253;-62
2022/12/08 05:23:19;;;;;;;8.90;3.90;;;22.70;52.50;;;;;;215206;1280;22512;-62
2022/12/08 05:28:24;;;;;;;7.30;4.10;;;22.60;52.50;;;;;;215480;1278;22463;-61
2022/12/08 05:33:45;;;;;;;6.10;3.60;;;22.50;53.00;;;;;;215430;1283;25427;-61
2022/12/08 05:38:48;;;;;;;7.00;3.80;;;22.40;52.90;;;;;;215284;1291;25372;-62
2022/12/08 05:43:55;;;;;;;6.50;3.90;;;22.30;53.00;;;;;;215302;1275;24343;-61
2022/12/08 05:49:00;;;;;;;7.30;3.70;;;22.20;53.00;;;;;;215247;1275;24243;-61
2022/12/08 05:54:05;;;;;;;5.60;3.60;;;22.20;53.20;;;;;;215561;1277;22466;-63
2022/12/08 05:59:12;;;;;;;5.80;3.60;;;22.00;53.70;;;;;;215279;1284;25546;-61
2022/12/08 06:04:17;;;;;;;6.90;4.00;;;22.00;53.40;;;;;;215378;1277;25302;-61
2022/12/08 06:09:23;;;;;;;6.10;3.40;;;22.00;53.50;;;;;;215249;1276;23228;-63
2022/12/08 06:14:30;;;;;;;8.20;3.80;;;21.90;53.50;;;;;;215215;1275;22626;-61
2022/12/08 06:19:34;;;;;;;5.90;3.50;;;21.80;53.60;;;;;;215015;1276;25333;-62
2022/12/08 06:24:41;;;;;;;6.30;3.80;;;21.80;53.60;;;;;;215600;1298;25309;-61
2022/12/08 06:29:45;;;;;;;6.60;3.70;;;21.80;53.70;;;;;;215491;1275;23979;-62
2022/12/08 06:34:50;;;;;;;6.40;3.50;;;21.70;53.70;;;;;;215170;1275;22507;-61
2022/12/08 06:39:57;;;;;;;6.30;3.30;;;21.60;54.60;;;;;;216511;1285;24000;-61
2022/12/08 06:45:05;;;;;;;7.10;3.10;;;21.60;53.70;;;;;;215223;1277;25594;-61
2022/12/08 06:50:12;;;;;;;5.20;3.40;;;21.60;53.90;;;;;;215269;1276;23900;-60
2022/12/08 06:55:16;;;;;;;7.80;3.50;;;21.50;54.00;;;;;;215018;1283;24868;-61
2022/12/08 07:00:45;;;;;;;9.20;3.50;;;21.40;54.10;;;;;;215215;1277;22466;-61
2022/12/08 07:05:56;;;;;;;6.30;3.30;;;21.40;54.10;;;;;;215072;1283;22580;-62
2022/12/08 07:11:13;;;;;;;6.10;3.20;;;21.30;54.70;;;;;;214861;1275;25625;-61
2022/12/08 07:16:24;;;;;;;6.70;3.60;;;21.50;54.50;;;;;;215126;1280;23841;-61
2022/12/08 07:21:28;;;;;;;6.90;3.70;;;21.80;54.00;;;;;;215582;1277;26065;-60
2022/12/08 07:26:32;;;;;;;7.10;3.60;;;22.00;53.90;;;;;;215369;1286;26573;-59
2022/12/08 07:31:40;;;;;;;9.70;3.30;;;22.20;54.20;;;;;;215525;1272;23853;-61
2022/12/08 07:36:44;;;;;;;7.90;3.60;;;22.20;53.80;;;;;;215603;1272;25382;-62
2022/12/08 07:41:49;;;;;;;9.40;3.90;;;22.40;53.50;;;;;;215645;1295;22634;-60
2022/12/08 07:46:56;;;;;;;7.80;3.50;;;22.50;53.30;;;;;;215418;1296;25305;-61
2022/12/08 07:52:25;;;;;;;6.50;3.10;;;22.60;53.10;;;;;;215609;1276;23859;-59
2022/12/08 07:57:38;;;;;;;5.50;3.60;;;22.70;52.70;;;;;;215326;1283;22474;-58
2022/12/08 08:02:45;;;;;;;7.30;3.90;;;22.70;52.70;;;;;;215589;1282;24017;-58
2022/12/08 08:07:53;;;;;;;6.70;3.50;;;22.60;52.60;;;;;;215610;1272;22492;-58
2022/12/08 08:13:01;;;;;;;5.60;3.10;;;22.60;52.40;;;;;;215625;1274;22474;-58
2022/12/08 08:18:06;;;;;;;6.00;3.40;;;22.60;53.00;;;;;;215520;1282;25650;-59
2022/12/08 08:23:13;;;;;;;9.10;3.40;;;22.70;52.40;;;;;;215676;1283;24324;-58
2022/12/08 08:28:21;;;;;;;5.80;3.20;;;22.80;52.30;;;;;;215664;1297;22487;-58
2022/12/08 08:33:28;;;;;;;7.20;2.80;;;22.90;52.10;;;;;;215645;1283;26555;-57
2022/12/08 08:38:32;;;;;;;5.80;3.10;;;22.90;52.00;;;;;;215574;1289;22463;-57
2022/12/08 08:43:36;;;;;;;7.00;3.10;;;22.90;52.00;;;;;;215655;1290;24532;-57
2022/12/08 08:48:41;;;;;;;7.30;2.90;;;22.90;51.90;;;;;;215647;1282;24243;-60
2022/12/08 08:53:45;;;;;;;6.40;3.40;;;23.00;51.80;;;;;;215602;1282;24008;-60
2022/12/08 08:58:51;;;;;;;7.20;3.30;;;23.00;52.00;;;;;;215535;1283;24281;-58
2022/12/08 09:03:56;;;;;;;6.10;2.90;;;23.00;51.80;;;;;;215590;1277;22613;-58
2022/12/08 09:09:00;;;;;;;6.30;2.80;;;23.00;51.80;;;;;;215580;1275;22465;-56
2022/12/08 09:14:05;;;;;;;10.30;3.10;;;23.10;51.70;;;;;;215595;1280;24247;-58
2022/12/08 09:19:09;;;;;;;7.90;2.80;;;23.10;51.70;;;;;;215267;1277;23016;-57
2022/12/08 09:24:17;;;;;;;5.70;3.20;;;23.20;51.60;;;;;;215350;1278;22535;-58
2022/12/08 09:29:20;;;;;;;5.70;2.70;;;23.30;51.20;;;;;;215552;1272;22480;-59
2022/12/08 09:34:24;;;;;;;6.50;3.10;;;23.40;51.10;;;;;;215469;1277;25384;-58
2022/12/08 09:39:28;;;;;;;7.90;3.00;;;23.30;51.10;;;;;;215497;1272;25371;-59
2022/12/08 09:44:50;;;;;;;9.20;2.40;;;23.30;51.10;;;;;;215622;1282;25438;-59
2022/12/08 09:50:17;;;;;;;30.90;9.70;;;23.10;51.30;;;;;;215546;1281;24236;-59
2022/12/08 09:55:32;;;;;;;81.00;28.10;;;23.00;51.50;;;;;;215325;1284;22828;-60
2022/12/08 10:00:36;;;;;;;133.20;40.30;;;23.00;51.50;;;;;;215657;1280;25533;-60
2022/12/08 10:05:47;;;;;;;246.50;78.40;;;23.00;52.30;;;;;;215616;1280;24244;-58
2022/12/08 10:11:08;;;;;;;215.30;72.20;;;22.90;51.90;;;;;;215640;1290;22520;-58
2022/12/08 10:16:31;;;;;;;204.60;64.50;;;22.90;52.30;;;;;;215589;1277;23920;-57
2022/12/08 10:21:36;;;;;;;178.70;60.50;;;22.80;52.60;;;;;;215650;1280;24274;-58
2022/12/08 10:26:40;;;;;;;200.90;65.80;;;22.70;52.80;;;;;;215250;1276;174654;-58
2022/12/08 10:31:44;;;;;;;173.30;59.50;;;22.60;52.60;;;;;;215611;1298;25333;-58
2022/12/08 10:36:52;;;;;;;162.00;54.60;;;22.50;52.70;;;;;;215589;1296;22643;-59
2022/12/08 10:42:20;;;;;;;159.70;54.10;;;22.50;53.00;;;;;;215630;1279;22682;-58
2022/12/08 10:47:27;;;;;;;156.80;54.60;;;22.40;53.20;;;;;;215374;1280;22481;-58
2022/12/08 10:52:31;;;;;;;150.50;51.30;;;22.40;53.40;;;;;;215552;1288;26488;-59
2022/12/08 10:57:37;;;;;;;142.60;47.50;;;22.40;53.00;;;;;;215600;1297;22629;-56
2022/12/08 11:02:54;;;;;;;135.30;45.80;;;22.40;52.80;;;;;;215343;1281;25494;-58
2022/12/08 11:07:58;;;;;;;134.10;49.20;;;22.30;52.90;;;;;;215584;1284;22615;-58
2022/12/08 11:13:13;;;;;;;136.60;47.30;;;22.20;53.00;;;;;;215436;1280;24941;-57
2022/12/08 11:18:21;;;;;;;127.40;46.30;;;22.00;53.30;;;;;;215507;1276;22690;-57
2022/12/08 11:23:28;;;;;;;115.90;44.50;;;21.90;53.50;;;;;;215492;1292;25570;-58
2022/12/08 12:01:23;;;;;;;93.90;34.40;;;21.70;53.90;;;;;;209698;1304;543361;-57
2022/12/08 12:06:46;;;;;;;98.30;36.50;;;21.70;54.50;;;;;;212991;1294;22472;-61
2022/12/08 12:12:11;;;;;;;85.80;32.00;;;21.70;54.10;;;;;;213084;1294;165698;-60
2022/12/08 12:17:39;;;;;;;86.10;30.90;;;21.80;54.10;;;;;;213457;1281;24180;-57
2022/12/08 12:22:48;;;;;;;81.30;31.00;;;21.70;54.30;;;;;;213478;1298;25302;-57
2022/12/08 12:27:58;;;;;;;74.70;29.20;;;21.70;54.30;;;;;;213549;1288;22867;-60
2022/12/08 12:33:07;;;;;;;85.00;31.70;;;21.80;54.50;;;;;;213492;1288;23902;-60
2022/12/08 12:44:06;;;;;;;73.90;29.30;;;21.70;55.00;;;;;;213478;1285;24206;-59
2022/12/08 12:49:39;;;;;;;65.50;26.50;;;21.70;54.50;;;;;;213537;1285;26602;-57
2022/12/08 12:55:03;;;;;;;65.60;27.60;;;21.90;54.30;;;;;;215163;1288;25118;-57
2022/12/08 13:00:23;;;;;;;65.50;27.80;;;21.90;54.20;;;;;;213523;1288;23845;-54
2022/12/08 13:05:45;;;;;;;64.00;26.60;;;21.90;54.00;;;;;;213578;1288;22514;-57
2022/12/08 13:10:59;;;;;;;59.10;25.20;;;21.90;54.10;;;;;;213330;1293;25421;-58
2022/12/08 13:16:02;;;;;;;65.60;27.00;;;21.80;54.10;;;;;;213245;1304;22487;-57
2022/12/08 13:21:30;;;;;;;52.50;24.80;;;21.80;54.40;;;;;;213305;1312;24402;-58
2022/12/08 13:26:43;;;;;;;57.90;25.10;;;21.70;54.40;;;;;;213323;1312;23901;-59
2022/12/08 13:31:48;;;;;;;53.30;23.20;;;21.70;54.50;;;;;;213343;1290;22721;-54
2022/12/08 13:36:59;;;;;;;53.10;23.80;;;21.60;54.60;;;;;;213328;1297;22594;-58
2022/12/08 13:42:26;;;;;;;53.40;23.40;;;21.50;54.60;;;;;;213361;1295;22488;-56
2022/12/08 13:47:35;;;;;;;55.00;23.10;;;21.40;54.80;;;;;;213235;1298;23862;-56
2022/12/08 13:53:01;;;;;;;53.60;21.90;;;21.40;54.80;;;;;;213409;1298;23851;-55
2022/12/08 13:58:28;;;;;;;51.70;21.50;;;21.40;54.80;;;;;;213156;1293;24344;-56
2022/12/08 14:03:56;;;;;;;51.30;18.80;;;21.30;54.80;;;;;;213416;1298;25386;-58
2022/12/08 14:09:22;;;;;;;44.10;20.20;;;21.60;54.70;;;;;;213339;1288;23226;-59
2022/12/08 14:14:50;;;;;;;41.40;19.40;;;21.80;53.80;;;;;;213345;1288;24761;-58
2022/12/08 14:20:22;;;;;;;45.30;18.60;;;22.00;53.40;;;;;;213328;1288;24020;-63
2022/12/08 14:25:27;;;;;;;41.20;19.10;;;22.30;53.00;;;;;;213368;1288;25244;-60
2022/12/08 14:30:32;;;;;;;43.00;18.60;;;22.40;52.90;;;;;;213259;1298;22580;-61
2022/12/08 14:35:37;;;;;;;45.30;19.00;;;22.30;53.00;;;;;;213409;1287;22616;-60
2022/12/08 14:40:47;;;;;;;57.40;19.60;;;22.20;54.10;;;;;;213327;1294;23989;-61
2022/12/08 14:45:58;;;;;;;41.50;18.30;;;22.30;57.10;;;;;;213053;1298;26613;-59
2022/12/08 14:51:29;;;;;;;43.40;17.40;;;22.50;54.70;;;;;;213309;1292;24263;-58
2022/12/08 14:56:52;;;;;;;43.10;16.60;;;22.60;54.40;;;;;;213313;1289;24404;-58
2022/12/08 15:02:23;;;;;;;40.10;17.00;;;22.70;54.40;;;;;;213313;1292;22476;-59
2022/12/08 15:07:33;;;;;;;41.30;16.30;;;22.90;55.30;;;;;;213373;1292;22730;-59
2022/12/08 15:12:37;;;;;;;35.50;15.80;;;22.90;56.50;;;;;;213350;1281;22717;-58
2022/12/08 15:17:49;;;;;;;32.90;15.20;;;23.10;55.00;;;;;;213304;1297;22731;-59
2022/12/08 15:22:55;;;;;;;36.00;15.60;;;23.00;54.50;;;;;;213283;1281;22459;-61
2022/12/08 15:28:03;;;;;;;30.90;15.50;;;23.00;55.00;;;;;;213174;1297;25183;-60
2022/12/08 15:33:09;;;;;;;32.00;15.30;;;23.00;54.70;;;;;;213295;1295;22718;-60
2022/12/08 15:38:30;;;;;;;91.20;34.80;;;23.10;55.60;;;;;;213210;1288;24264;-59
2022/12/08 15:43:40;;;;;;;189.50;65.40;;;23.10;54.00;;;;;;213323;1312;22746;-62
2022/12/08 15:48:44;;;;;;;314.80;100.60;;;23.10;54.00;;;;;;213239;1296;22720;-60
2022/12/08 15:53:51;;;;;;;314.10;103.80;;;23.10;53.70;;;;;;213293;1312;26744;-61
2022/12/08 15:58:56;;;;;;;256.70;84.20;;;23.00;53.80;;;;;;213335;1287;23073;-61
2022/12/08 16:04:02;;;;;;;236.40;78.70;;;23.00;55.50;;;;;;213332;1295;23887;-60
2022/12/08 16:09:37;;;;;;;231.80;81.10;;;23.00;55.40;;;;;;213275;1289;22756;-59
2022/12/08 16:14:42;;;;;;;239.80;83.00;;;22.90;55.30;;;;;;213144;1281;25471;-60
2022/12/08 16:20:13;;;;;;;226.30;84.70;;;22.80;54.40;;;;;;213157;1289;23875;-60
2022/12/08 16:25:19;;;;;;;209.30;78.80;;;22.70;54.50;;;;;;213318;1287;25402;-59
2022/12/08 16:30:34;;;;;;;204.30;73.50;;;22.60;54.50;;;;;;213077;1288;25953;-59
2022/12/08 16:36:14;;;;;;;175.20;60.90;;;22.60;55.30;;;;;;213067;1297;22552;-59
2022/12/08 16:46:54;;;;;;;157.90;56.00;;;22.40;54.00;;;;;;213161;1297;24231;-57
2022/12/08 16:52:05;;;;;;;151.90;59.00;;;22.40;53.80;;;;;;213135;1290;22883;-58
2022/12/08 16:57:13;;;;;;;139.30;52.60;;;22.30;53.60;;;;;;213096;1287;22469;-58
2022/12/08 17:02:17;;;;;;;141.50;52.90;;;22.10;53.80;;;;;;213323;1289;22537;-62
2022/12/08 17:07:21;;;;;;;132.40;49.10;;;22.00;54.20;;;;;;213320;1292;24240;-60
2022/12/08 17:12:25;;;;;;;112.80;40.70;;;22.00;53.60;;;;;;213203;1294;25326;-60
2022/12/08 17:17:28;;;;;;;111.00;38.80;;;22.00;53.30;;;;;;213152;1288;22719;-60
2022/12/08 17:22:35;;;;;;;103.20;38.30;;;21.90;53.00;;;;;;213214;1287;23863;-59
2022/12/08 17:27:40;;;;;;;96.70;37.30;;;21.80;54.60;;;;;;213083;1287;25318;-60
2022/12/08 17:32:43;;;;;;;90.90;37.20;;;21.80;53.40;;;;;;213440;1298;23936;-61
2022/12/08 17:37:47;;;;;;;86.30;34.40;;;21.60;53.30;;;;;;213117;1301;25240;-59
2022/12/08 17:43:00;;;;;;;82.70;34.20;;;21.50;53.40;;;;;;213256;1293;25351;-61
2022/12/08 17:48:11;;;;;;;79.90;32.50;;;21.40;53.20;;;;;;213232;1297;22653;-61
2022/12/08 17:53:15;;;;;;;70.10;31.30;;;21.30;53.60;;;;;;213356;1292;22722;-61
2022/12/08 17:58:23;;;;;;;73.20;29.50;;;21.30;53.00;;;;;;213299;1297;22474;-61
2022/12/08 18:03:27;;;;;;;71.00;30.10;;;21.20;53.00;;;;;;213159;1288;24069;-61
2022/12/08 18:08:31;;;;;;;63.60;29.40;;;21.30;52.50;;;;;;213303;1298;25226;-61
2022/12/08 18:13:35;;;;;;;63.50;28.40;;;21.30;52.10;;;;;;213253;1311;23305;-60
2022/12/08 18:18:39;;;;;;;64.40;27.60;;;21.60;51.10;;;;;;213258;1293;25762;-61
2022/12/08 18:23:44;;;;;;;50.00;23.20;;;21.90;50.20;;;;;;213239;1297;25457;-60
2022/12/08 18:28:49;;;;;;;55.50;24.00;;;22.00;49.60;;;;;;213195;1294;22724;-60
2022/12/08 18:34:04;;;;;;;50.10;22.90;;;22.10;49.20;;;;;;213837;1290;24251;-59
2022/12/08 18:39:36;;;;;;;45.00;21.40;;;22.20;48.80;;;;;;214028;1284;24258;-60
2022/12/08 18:45:47;;;;;;;;;;;;;;;;;;;;;
2022/12/08 18:51:25;;;;;;;46.40;21.30;;;22.40;48.10;;;;;;213653;1284;24265;-61
2022/12/08 18:56:55;;;;;;;40.80;20.00;;;22.50;48.30;;;;;;213809;1293;24264;-61
2022/12/08 19:02:31;;;;;;;43.50;19.80;;;22.50;47.70;;;;;;213579;1278;22483;-63
2022/12/08 19:07:39;;;;;;;38.20;17.80;;;22.50;48.60;;;;;;213726;1286;22600;-63
2022/12/08 19:12:42;;;;;;;35.80;16.90;;;22.60;48.40;;;;;;213769;1284;22533;-60
2022/12/08 19:17:55;;;;;;;;;;;22.60;48.80;;;;;;213744;1286;24157;-58
2022/12/08 19:23:00;;;;;;;34.80;17.00;;;22.70;48.50;;;;;;213818;1284;25517;-56
2022/12/08 19:28:04;;;;;;;39.50;17.40;;;22.70;48.50;;;;;;213759;1284;25299;-58
2022/12/08 19:33:09;;;;;;;32.80;16.30;;;22.70;48.60;;;;;;213711;1288;24829;-57
2022/12/08 19:38:19;;;;;;;32.20;16.50;;;22.80;48.70;;;;;;213781;1286;25652;-58
2022/12/08 19:49:04;;;;;;;31.40;15.70;;;23.00;48.60;;;;;;213790;1285;25719;-58
2022/12/08 19:54:10;;;;;;;31.10;14.70;;;23.10;49.30;;;;;;213813;1285;25421;-59
2022/12/08 19:59:14;;;;;;;28.00;13.80;;;23.20;48.80;;;;;;213693;1285;24262;-57
2022/12/08 20:04:22;;;;;;;31.70;14.90;;;23.30;49.70;;;;;;213838;1286;24259;-57
2022/12/08 20:09:29;;;;;;;30.00;14.40;;;23.40;49.10;;;;;;214441;1281;22453;-57
2022/12/08 20:14:32;;;;;;;25.90;14.40;;;23.30;49.40;;;;;;214542;1282;22630;-58
2022/12/08 20:19:36;;;;;;;25.40;14.30;;;23.20;49.30;;;;;;214576;1280;22532;-56
2022/12/08 20:24:42;;;;;;;26.10;13.10;;;23.00;49.60;;;;;;214560;1281;22632;-58
2022/12/08 20:29:58;;;;;;;25.00;12.60;;;22.80;49.70;;;;;;214320;1282;22501;-58
2022/12/08 20:35:59;;;;;;;25.30;13.40;;;22.70;49.50;;;;;;214282;1294;25602;-58
2022/12/08 20:41:28;;;;;;;24.60;12.30;;;22.60;49.80;;;;;;214344;1287;25235;-57
2022/12/08 20:46:52;;;;;;;20.00;11.80;;;22.50;49.80;;;;;;214482;1282;22551;-58
2022/12/08 20:51:58;;;;;;;59.00;24.70;;;22.50;49.60;;;;;;214568;1293;24273;-55
2022/12/08 20:57:22;;;;;;;124.30;44.60;;;22.50;50.30;;;;;;214681;1280;22535;-54
2022/12/08 21:02:31;;;;;;;240.20;78.50;;;22.30;50.40;;;;;;214379;1287;22473;-56
2022/12/08 21:07:37;;;;;;;306.30;90.20;;;22.20;50.20;;;;;;214455;1281;25389;-54
2022/12/08 21:12:41;;;;;;;236.20;80.00;;;22.20;50.30;;;;;;214378;1282;24264;-54
2022/12/08 21:17:45;;;;;;;223.20;77.00;;;22.20;50.80;;;;;;214689;1296;25924;-56
2022/12/08 21:22:49;;;;;;;250.60;84.40;;;22.10;50.90;;;;;;214567;1282;22489;-55
2022/12/08 21:27:59;;;;;;;228.00;76.10;;;22.00;51.40;;;;;;214286;1285;24253;-54
2022/12/08 21:33:31;;;;;;;196.50;71.90;;;21.90;51.10;;;;;;214307;1291;22442;-55
2022/12/08 21:38:41;;;;;;;;;;;21.80;51.70;;;;;;214521;1281;25522;-54
2022/12/08 21:43:52;;;;;;;186.50;64.00;;;21.70;52.00;;;;;;214500;1277;24264;-57
2022/12/08 21:48:57;;;;;;;177.70;63.90;;;21.80;55.80;;;;;;214722;1286;22542;-56
2022/12/08 21:54:03;;;;;;;178.10;57.90;;;21.80;56.00;;;;;;214401;1281;22492;-56
2022/12/08 21:59:09;;;;;;;173.70;60.90;;;21.80;55.70;;;;;;214465;1282;23031;-56
2022/12/08 22:04:16;;;;;;;154.00;54.70;;;21.70;55.20;;;;;;214663;1294;24268;-56
2022/12/08 22:09:21;;;;;;;158.00;55.40;;;21.70;55.10;;;;;;214469;1280;22460;-55
2022/12/08 22:14:25;;;;;;;152.80;53.30;;;21.70;55.50;;;;;;214607;1290;25535;-55
2022/12/08 22:19:30;;;;;;;144.90;52.50;;;21.60;54.80;;;;;;214392;1282;25356;-56
2022/12/08 22:24:33;;;;;;;135.90;51.00;;;21.60;54.70;;;;;;214454;1288;26509;-56
2022/12/08 22:29:37;;;;;;;130.20;49.00;;;21.50;54.60;;;;;;214591;1281;23846;-52
2022/12/08 22:34:42;;;;;;;125.80;46.90;;;21.50;54.50;;;;;;214730;1282;25355;-56
2022/12/08 22:39:49;;;;;;;115.90;46.30;;;21.50;54.40;;;;;;214574;1282;22598;-54
2022/12/08 22:45:07;;;;;;;115.60;44.10;;;21.50;54.50;;;;;;214645;1280;25677;-55
2022/12/08 22:50:14;;;;;;;107.10;43.50;;;21.40;54.40;;;;;;214627;1288;26457;-55
2022/12/08 22:55:49;;;;;;;108.50;41.20;;;21.40;54.40;;;;;;214708;1286;22492;-56
2022/12/08 23:01:44;;;;;;;112.00;42.30;;;21.30;54.70;;;;;;213721;1288;24326;-56
2022/12/08 23:06:51;;;;;;;107.90;39.70;;;21.30;54.30;;;;;;213798;1280;24262;-54
2022/12/08 23:12:01;;;;;;;100.60;39.30;;;21.30;54.30;;;;;;213872;1285;23917;-55
2022/12/08 23:17:05;;;;;;;100.40;38.50;;;21.30;54.30;;;;;;213915;1281;22860;-55
2022/12/08 23:22:09;;;;;;;94.30;36.70;;;21.30;54.40;;;;;;214156;1282;25382;-56
2022/12/08 23:27:13;;;;;;;86.60;37.00;;;21.20;54.40;;;;;;214003;1283;23653;-55
2022/12/08 23:32:17;;;;;;;94.70;37.20;;;21.20;54.30;;;;;;214347;1282;22497;-54
2022/12/08 23:37:21;;;;;;;93.00;35.30;;;21.10;54.10;;;;;;214549;1304;25327;-55
2022/12/08 23:42:25;;;;;;;73.60;32.20;;;21.10;53.90;;;;;;214653;1290;24228;-55
2022/12/08 23:47:29;;;;;;;77.10;33.30;;;21.20;54.20;;;;;;215436;1277;22533;-53
2022/12/08 23:52:33;;;;;;;84.80;32.00;;;21.50;53.70;;;;;;214760;1277;22644;-53
2022/12/08 23:57:37;;;;;;;74.40;31.90;;;21.80;53.20;;;;;;214768;1280;25317;-54
